sensor_id;sensor_type;location;lat;lon;timestamp;P1;durP1;ratioP1;P2;durP2;ratioP2
59074;SDS011;44860;53.020;6.738;2023-03-01T00:01:25;29.75;;;20.83;;
59074;SDS011;44860;53.020;6.738;2023-03-01T00:03:53;29.63;;;20.33;;
59074;SDS011;44860;53.020;6.738;2023-03-01T00:06:20;29.17;;;20.58;;
59074;SDS011;44860;53.020;6.738;2023-03-01T00:08:46;31.40;;;20.92;;
59074;SDS011;44860;53.020;6.738;2023-03-01T00:13:43;26.02;;;20.17;;
59074;SDS011;44860;53.020;6.738;2023-03-01T00:16:11;29.25;;;20.30;;
59074;SDS011;44860;53.020;6.738;2023-03-01T00:18:38;27.15;;;20.38;;
59074;SDS011;44860;53.020;6.738;2023-03-01T00:21:04;27.33;;;20.38;;
59074;SDS011;44860;53.020;6.738;2023-03-01T00:23:30;28.10;;;19.25;;
59074;SDS011;44860;53.020;6.738;2023-03-01T00:25:56;30.05;;;20.95;;
59074;SDS011;44860;53.020;6.738;2023-03-01T00:28:22;26.67;;;20.15;;
59074;SDS011;44860;53.020;6.738;2023-03-01T00:30:48;29.98;;;19.65;;
59074;SDS011;44860;53.020;6.738;2023-03-01T00:33:14;27.20;;;19.77;;
59074;SDS011;44860;53.020;6.738;2023-03-01T00:35:39;29.25;;;19.83;;
59074;SDS011;44860;53.020;6.738;2023-03-01T00:38:05;27.08;;;19.38;;
59074;SDS011;44860;53.020;6.738;2023-03-01T00:40:33;28.30;;;19.95;;
59074;SDS011;44860;53.020;6.738;2023-03-01T00:42:59;29.33;;;19.83;;
59074;SDS011;44860;53.020;6.738;2023-03-01T00:45:25;28.13;;;18.95;;
59074;SDS011;44860;53.020;6.738;2023-03-01T00:47:52;25.98;;;18.92;;
59074;SDS011;44860;53.020;6.738;2023-03-01T00:50:18;25.40;;;18.35;;
59074;SDS011;44860;53.020;6.738;2023-03-01T00:52:44;26.10;;;19.45;;
59074;SDS011;44860;53.020;6.738;2023-03-01T00:55:10;26.92;;;19.25;;
59074;SDS011;44860;53.020;6.738;2023-03-01T00:57:36;26.67;;;19.92;;
59074;SDS011;44860;53.020;6.738;2023-03-01T01:00:03;26.55;;;19.63;;
59074;SDS011;44860;53.020;6.738;2023-03-01T01:02:32;26.10;;;19.17;;
59074;SDS011;44860;53.020;6.738;2023-03-01T01:04:58;27.95;;;19.35;;
59074;SDS011;44860;53.020;6.738;2023-03-01T01:07:24;26.35;;;19.00;;
59074;SDS011;44860;53.020;6.738;2023-03-01T01:09:49;28.33;;;19.70;;
59074;SDS011;44860;53.020;6.738;2023-03-01T01:12:15;26.35;;;18.85;;
59074;SDS011;44860;53.020;6.738;2023-03-01T01:14:41;25.67;;;18.55;;
59074;SDS011;44860;53.020;6.738;2023-03-01T01:17:06;26.85;;;19.10;;
59074;SDS011;44860;53.020;6.738;2023-03-01T01:19:32;27.35;;;18.95;;
59074;SDS011;44860;53.020;6.738;2023-03-01T01:21:58;26.33;;;18.63;;
59074;SDS011;44860;53.020;6.738;2023-03-01T01:24:23;28.95;;;19.17;;
59074;SDS011;44860;53.020;6.738;2023-03-01T01:26:49;29.73;;;20.35;;
59074;SDS011;44860;53.020;6.738;2023-03-01T01:29:15;26.88;;;19.08;;
59074;SDS011;44860;53.020;6.738;2023-03-01T01:31:41;29.08;;;19.90;;
59074;SDS011;44860;53.020;6.738;2023-03-01T01:34:10;26.48;;;18.80;;
59074;SDS011;44860;53.020;6.738;2023-03-01T01:36:41;27.10;;;20.20;;
59074;SDS011;44860;53.020;6.738;2023-03-01T01:39:07;27.00;;;19.83;;
59074;SDS011;44860;53.020;6.738;2023-03-01T01:41:38;25.70;;;18.65;;
59074;SDS011;44860;53.020;6.738;2023-03-01T01:46:37;27.65;;;18.65;;
59074;SDS011;44860;53.020;6.738;2023-03-01T01:49:15;26.08;;;18.65;;
59074;SDS011;44860;53.020;6.738;2023-03-01T01:51:54;26.70;;;18.08;;
59074;SDS011;44860;53.020;6.738;2023-03-01T01:54:46;26.90;;;19.13;;
59074;SDS011;44860;53.020;6.738;2023-03-01T01:57:34;27.13;;;19.08;;
59074;SDS011;44860;53.020;6.738;2023-03-01T02:00:08;27.02;;;20.08;;
59074;SDS011;44860;53.020;6.738;2023-03-01T02:02:39;25.85;;;18.92;;
59074;SDS011;44860;53.020;6.738;2023-03-01T02:05:20;27.35;;;19.40;;
59074;SDS011;44860;53.020;6.738;2023-03-01T02:08:14;25.60;;;18.65;;
59074;SDS011;44860;53.020;6.738;2023-03-01T02:10:43;24.65;;;19.10;;
59074;SDS011;44860;53.020;6.738;2023-03-01T02:13:10;27.67;;;19.38;;
59074;SDS011;44860;53.020;6.738;2023-03-01T02:15:37;25.95;;;19.73;;
59074;SDS011;44860;53.020;6.738;2023-03-01T02:18:04;28.80;;;20.77;;
59074;SDS011;44860;53.020;6.738;2023-03-01T02:23:00;26.85;;;20.25;;
59074;SDS011;44860;53.020;6.738;2023-03-01T02:28:08;26.30;;;20.13;;
59074;SDS011;44860;53.020;6.738;2023-03-01T02:30:40;24.55;;;19.42;;
59074;SDS011;44860;53.020;6.738;2023-03-01T02:33:28;27.63;;;20.50;;
59074;SDS011;44860;53.020;6.738;2023-03-01T02:35:57;24.95;;;19.52;;
59074;SDS011;44860;53.020;6.738;2023-03-01T02:38:25;26.65;;;18.85;;
59074;SDS011;44860;53.020;6.738;2023-03-01T02:40:51;26.35;;;18.88;;
59074;SDS011;44860;53.020;6.738;2023-03-01T02:43:19;25.83;;;18.77;;
59074;SDS011;44860;53.020;6.738;2023-03-01T02:45:48;24.05;;;17.88;;
59074;SDS011;44860;53.020;6.738;2023-03-01T02:48:18;23.48;;;18.23;;
59074;SDS011;44860;53.020;6.738;2023-03-01T02:53:49;22.05;;;17.10;;
59074;SDS011;44860;53.020;6.738;2023-03-01T02:56:18;20.92;;;16.23;;
59074;SDS011;44860;53.020;6.738;2023-03-01T02:58:44;21.55;;;16.35;;
59074;SDS011;44860;53.020;6.738;2023-03-01T03:01:13;20.88;;;15.90;;
59074;SDS011;44860;53.020;6.738;2023-03-01T03:03:40;22.05;;;16.67;;
59074;SDS011;44860;53.020;6.738;2023-03-01T03:06:07;21.58;;;16.52;;
59074;SDS011;44860;53.020;6.738;2023-03-01T03:08:33;23.30;;;17.15;;
59074;SDS011;44860;53.020;6.738;2023-03-01T03:10:58;19.88;;;16.25;;
59074;SDS011;44860;53.020;6.738;2023-03-01T03:13:24;21.00;;;16.65;;
59074;SDS011;44860;53.020;6.738;2023-03-01T03:15:54;20.02;;;15.55;;
59074;SDS011;44860;53.020;6.738;2023-03-01T03:18:22;20.08;;;16.17;;
59074;SDS011;44860;53.020;6.738;2023-03-01T03:20:51;21.15;;;16.88;;
59074;SDS011;44860;53.020;6.738;2023-03-01T03:23:18;20.85;;;15.93;;
59074;SDS011;44860;53.020;6.738;2023-03-01T03:25:45;21.25;;;16.38;;
59074;SDS011;44860;53.020;6.738;2023-03-01T03:28:13;22.70;;;16.38;;
59074;SDS011;44860;53.020;6.738;2023-03-01T03:30:40;21.08;;;16.45;;
59074;SDS011;44860;53.020;6.738;2023-03-01T03:33:07;19.58;;;15.98;;
59074;SDS011;44860;53.020;6.738;2023-03-01T03:35:34;20.33;;;16.02;;
59074;SDS011;44860;53.020;6.738;2023-03-01T03:38:06;20.25;;;15.15;;
59074;SDS011;44860;53.020;6.738;2023-03-01T03:40:40;20.58;;;16.10;;
59074;SDS011;44860;53.020;6.738;2023-03-01T03:43:21;21.13;;;16.75;;
59074;SDS011;44860;53.020;6.738;2023-03-01T03:45:48;21.90;;;16.65;;
59074;SDS011;44860;53.020;6.738;2023-03-01T03:48:15;20.85;;;16.42;;
59074;SDS011;44860;53.020;6.738;2023-03-01T03:50:46;23.75;;;16.75;;
59074;SDS011;44860;53.020;6.738;2023-03-01T03:53:13;20.80;;;16.30;;
59074;SDS011;44860;53.020;6.738;2023-03-01T03:55:39;22.70;;;17.05;;
59074;SDS011;44860;53.020;6.738;2023-03-01T03:58:05;23.42;;;17.55;;
59074;SDS011;44860;53.020;6.738;2023-03-01T04:00:34;23.77;;;17.42;;
59074;SDS011;44860;53.020;6.738;2023-03-01T04:03:05;23.77;;;17.45;;
59074;SDS011;44860;53.020;6.738;2023-03-01T04:05:31;27.05;;;19.30;;
59074;SDS011;44860;53.020;6.738;2023-03-01T04:07:57;24.40;;;18.90;;
59074;SDS011;44860;53.020;6.738;2023-03-01T04:10:29;27.50;;;19.33;;
59074;SDS011;44860;53.020;6.738;2023-03-01T04:12:56;26.17;;;18.77;;
59074;SDS011;44860;53.020;6.738;2023-03-01T04:15:22;27.05;;;19.38;;
59074;SDS011;44860;53.020;6.738;2023-03-01T04:17:50;26.40;;;19.60;;
59074;SDS011;44860;53.020;6.738;2023-03-01T04:20:18;29.13;;;19.75;;
59074;SDS011;44860;53.020;6.738;2023-03-01T04:23:00;28.35;;;19.40;;
59074;SDS011;44860;53.020;6.738;2023-03-01T04:25:42;30.67;;;21.23;;
59074;SDS011;44860;53.020;6.738;2023-03-01T04:28:18;31.15;;;21.35;;
59074;SDS011;44860;53.020;6.738;2023-03-01T04:30:45;32.08;;;20.98;;
59074;SDS011;44860;53.020;6.738;2023-03-01T04:33:11;30.30;;;21.52;;
59074;SDS011;44860;53.020;6.738;2023-03-01T04:35:36;30.23;;;20.42;;
59074;SDS011;44860;53.020;6.738;2023-03-01T04:38:03;29.65;;;20.55;;
59074;SDS011;44860;53.020;6.738;2023-03-01T04:40:30;28.55;;;20.40;;
59074;SDS011;44860;53.020;6.738;2023-03-01T04:42:56;30.67;;;19.98;;
59074;SDS011;44860;53.020;6.738;2023-03-01T04:45:22;29.90;;;20.85;;
59074;SDS011;44860;53.020;6.738;2023-03-01T04:47:48;28.70;;;19.88;;
59074;SDS011;44860;53.020;6.738;2023-03-01T04:50:15;28.42;;;20.00;;
59074;SDS011;44860;53.020;6.738;2023-03-01T04:52:42;26.60;;;19.67;;
59074;SDS011;44860;53.020;6.738;2023-03-01T04:55:09;26.98;;;19.48;;
59074;SDS011;44860;53.020;6.738;2023-03-01T04:57:35;27.92;;;20.25;;
59074;SDS011;44860;53.020;6.738;2023-03-01T05:00:02;29.27;;;20.33;;
59074;SDS011;44860;53.020;6.738;2023-03-01T05:02:45;28.02;;;19.17;;
59074;SDS011;44860;53.020;6.738;2023-03-01T05:05:25;25.50;;;18.63;;
59074;SDS011;44860;53.020;6.738;2023-03-01T05:07:55;29.70;;;19.10;;
59074;SDS011;44860;53.020;6.738;2023-03-01T05:10:22;25.50;;;18.80;;
59074;SDS011;44860;53.020;6.738;2023-03-01T05:12:49;27.30;;;19.25;;
59074;SDS011;44860;53.020;6.738;2023-03-01T05:15:14;29.02;;;20.02;;
59074;SDS011;44860;53.020;6.738;2023-03-01T05:17:41;25.30;;;17.88;;
59074;SDS011;44860;53.020;6.738;2023-03-01T05:20:07;23.30;;;17.17;;
59074;SDS011;44860;53.020;6.738;2023-03-01T05:22:36;27.30;;;18.90;;
59074;SDS011;44860;53.020;6.738;2023-03-01T05:25:02;24.70;;;18.13;;
59074;SDS011;44860;53.020;6.738;2023-03-01T05:27:28;23.45;;;18.30;;
59074;SDS011;44860;53.020;6.738;2023-03-01T05:29:54;28.83;;;18.65;;
59074;SDS011;44860;53.020;6.738;2023-03-01T05:32:21;25.67;;;18.35;;
59074;SDS011;44860;53.020;6.738;2023-03-01T05:34:46;25.15;;;17.92;;
59074;SDS011;44860;53.020;6.738;2023-03-01T05:37:12;28.77;;;18.27;;
59074;SDS011;44860;53.020;6.738;2023-03-01T05:39:38;26.30;;;18.45;;
59074;SDS011;44860;53.020;6.738;2023-03-01T05:42:04;25.35;;;17.88;;
59074;SDS011;44860;53.020;6.738;2023-03-01T05:44:30;26.00;;;18.15;;
59074;SDS011;44860;53.020;6.738;2023-03-01T05:46:56;25.05;;;18.05;;
59074;SDS011;44860;53.020;6.738;2023-03-01T05:49:22;24.55;;;18.38;;
59074;SDS011;44860;53.020;6.738;2023-03-01T05:51:51;26.92;;;18.08;;
59074;SDS011;44860;53.020;6.738;2023-03-01T05:54:18;25.50;;;17.85;;
59074;SDS011;44860;53.020;6.738;2023-03-01T05:56:45;25.30;;;18.50;;
59074;SDS011;44860;53.020;6.738;2023-03-01T05:59:11;24.92;;;17.88;;
59074;SDS011;44860;53.020;6.738;2023-03-01T06:01:37;24.50;;;17.88;;
59074;SDS011;44860;53.020;6.738;2023-03-01T06:04:03;26.45;;;19.10;;
59074;SDS011;44860;53.020;6.738;2023-03-01T06:06:30;24.30;;;18.42;;
59074;SDS011;44860;53.020;6.738;2023-03-01T06:08:59;26.58;;;17.98;;
59074;SDS011;44860;53.020;6.738;2023-03-01T06:11:24;25.70;;;18.17;;
59074;SDS011;44860;53.020;6.738;2023-03-01T06:13:50;23.13;;;17.30;;
59074;SDS011;44860;53.020;6.738;2023-03-01T06:16:16;24.38;;;17.33;;
59074;SDS011;44860;53.020;6.738;2023-03-01T06:18:41;26.52;;;18.23;;
59074;SDS011;44860;53.020;6.738;2023-03-01T06:21:07;26.13;;;17.95;;
59074;SDS011;44860;53.020;6.738;2023-03-01T06:23:34;24.80;;;17.75;;
59074;SDS011;44860;53.020;6.738;2023-03-01T06:26:00;27.50;;;18.45;;
59074;SDS011;44860;53.020;6.738;2023-03-01T06:28:30;27.67;;;18.38;;
59074;SDS011;44860;53.020;6.738;2023-03-01T06:30:55;25.88;;;18.30;;
59074;SDS011;44860;53.020;6.738;2023-03-01T06:33:21;25.85;;;18.20;;
59074;SDS011;44860;53.020;6.738;2023-03-01T06:35:49;26.02;;;18.25;;
59074;SDS011;44860;53.020;6.738;2023-03-01T06:38:15;26.52;;;18.52;;
59074;SDS011;44860;53.020;6.738;2023-03-01T06:40:43;29.15;;;18.95;;
59074;SDS011;44860;53.020;6.738;2023-03-01T06:43:10;27.48;;;18.90;;
59074;SDS011;44860;53.020;6.738;2023-03-01T06:45:36;28.77;;;20.48;;
59074;SDS011;44860;53.020;6.738;2023-03-01T06:48:03;31.40;;;21.20;;
59074;SDS011;44860;53.020;6.738;2023-03-01T06:50:29;28.00;;;20.10;;
59074;SDS011;44860;53.020;6.738;2023-03-01T06:52:55;28.38;;;20.33;;
59074;SDS011;44860;53.020;6.738;2023-03-01T06:55:21;31.63;;;20.92;;
59074;SDS011;44860;53.020;6.738;2023-03-01T06:57:47;29.30;;;20.63;;
59074;SDS011;44860;53.020;6.738;2023-03-01T07:00:13;30.63;;;20.60;;
59074;SDS011;44860;53.020;6.738;2023-03-01T07:02:39;31.02;;;20.63;;
59074;SDS011;44860;53.020;6.738;2023-03-01T07:05:06;33.90;;;21.30;;
59074;SDS011;44860;53.020;6.738;2023-03-01T07:07:32;32.35;;;21.17;;
59074;SDS011;44860;53.020;6.738;2023-03-01T07:09:58;31.05;;;21.65;;
59074;SDS011;44860;53.020;6.738;2023-03-01T07:12:23;31.38;;;21.15;;
59074;SDS011;44860;53.020;6.738;2023-03-01T07:14:49;30.42;;;21.23;;
59074;SDS011;44860;53.020;6.738;2023-03-01T07:17:14;32.22;;;21.35;;
59074;SDS011;44860;53.020;6.738;2023-03-01T07:19:40;33.05;;;20.77;;
59074;SDS011;44860;53.020;6.738;2023-03-01T07:22:06;31.02;;;21.45;;
59074;SDS011;44860;53.020;6.738;2023-03-01T07:24:33;28.88;;;20.40;;
59074;SDS011;44860;53.020;6.738;2023-03-01T07:26:59;34.60;;;21.40;;
59074;SDS011;44860;53.020;6.738;2023-03-01T07:29:24;29.45;;;20.63;;
59074;SDS011;44860;53.020;6.738;2023-03-01T07:31:50;31.65;;;21.30;;
59074;SDS011;44860;53.020;6.738;2023-03-01T07:34:16;28.65;;;20.40;;
59074;SDS011;44860;53.020;6.738;2023-03-01T07:36:41;30.75;;;19.85;;
59074;SDS011;44860;53.020;6.738;2023-03-01T07:39:09;27.73;;;19.73;;
59074;SDS011;44860;53.020;6.738;2023-03-01T07:41:35;28.38;;;20.50;;
59074;SDS011;44860;53.020;6.738;2023-03-01T07:44:00;30.50;;;20.33;;
59074;SDS011;44860;53.020;6.738;2023-03-01T07:46:26;28.90;;;20.05;;
59074;SDS011;44860;53.020;6.738;2023-03-01T07:48:52;28.42;;;20.05;;
59074;SDS011;44860;53.020;6.738;2023-03-01T07:51:18;30.05;;;20.33;;
59074;SDS011;44860;53.020;6.738;2023-03-01T07:53:45;31.92;;;21.75;;
59074;SDS011;44860;53.020;6.738;2023-03-01T07:56:13;33.97;;;23.02;;
59074;SDS011;44860;53.020;6.738;2023-03-01T07:58:41;33.50;;;22.38;;
59074;SDS011;44860;53.020;6.738;2023-03-01T08:01:08;32.25;;;22.90;;
59074;SDS011;44860;53.020;6.738;2023-03-01T08:03:36;34.08;;;22.92;;
59074;SDS011;44860;53.020;6.738;2023-03-01T08:06:03;31.65;;;22.05;;
59074;SDS011;44860;53.020;6.738;2023-03-01T08:08:30;36.22;;;23.20;;
59074;SDS011;44860;53.020;6.738;2023-03-01T08:10:57;44.08;;;27.58;;
59074;SDS011;44860;53.020;6.738;2023-03-01T08:13:23;44.28;;;27.88;;
59074;SDS011;44860;53.020;6.738;2023-03-01T08:15:49;49.60;;;31.02;;
59074;SDS011;44860;53.020;6.738;2023-03-01T08:18:16;63.25;;;33.88;;
59074;SDS011;44860;53.020;6.738;2023-03-01T08:20:42;69.90;;;36.80;;
59074;SDS011;44860;53.020;6.738;2023-03-01T08:23:08;64.68;;;37.65;;
59074;SDS011;44860;53.020;6.738;2023-03-01T08:25:34;77.72;;;38.42;;
59074;SDS011;44860;53.020;6.738;2023-03-01T08:28:00;67.75;;;36.60;;
59074;SDS011;44860;53.020;6.738;2023-03-01T08:30:25;72.43;;;38.42;;
59074;SDS011;44860;53.020;6.738;2023-03-01T08:32:51;71.75;;;38.55;;
59074;SDS011;44860;53.020;6.738;2023-03-01T08:35:17;73.05;;;40.35;;
59074;SDS011;44860;53.020;6.738;2023-03-01T08:37:43;81.93;;;41.65;;
59074;SDS011;44860;53.020;6.738;2023-03-01T08:40:09;76.13;;;40.67;;
59074;SDS011;44860;53.020;6.738;2023-03-01T08:42:36;77.30;;;41.65;;
59074;SDS011;44860;53.020;6.738;2023-03-01T08:45:05;73.45;;;40.45;;
59074;SDS011;44860;53.020;6.738;2023-03-01T08:47:32;69.70;;;38.28;;
59074;SDS011;44860;53.020;6.738;2023-03-01T08:50:01;68.28;;;38.08;;
59074;SDS011;44860;53.020;6.738;2023-03-01T08:52:28;69.00;;;39.88;;
59074;SDS011;44860;53.020;6.738;2023-03-01T08:54:55;69.75;;;38.92;;
59074;SDS011;44860;53.020;6.738;2023-03-01T08:57:21;82.68;;;45.90;;
59074;SDS011;44860;53.020;6.738;2023-03-01T08:59:47;77.50;;;44.13;;
59074;SDS011;44860;53.020;6.738;2023-03-01T09:02:14;72.65;;;41.67;;
59074;SDS011;44860;53.020;6.738;2023-03-01T09:04:41;68.28;;;39.90;;
59074;SDS011;44860;53.020;6.738;2023-03-01T09:07:07;67.53;;;39.75;;
59074;SDS011;44860;53.020;6.738;2023-03-01T09:09:33;71.18;;;40.80;;
59074;SDS011;44860;53.020;6.738;2023-03-01T09:12:00;75.00;;;40.83;;
59074;SDS011;44860;53.020;6.738;2023-03-01T09:14:26;78.35;;;40.70;;
59074;SDS011;44860;53.020;6.738;2023-03-01T09:16:52;74.43;;;40.47;;
59074;SDS011;44860;53.020;6.738;2023-03-01T09:19:18;80.75;;;42.88;;
59074;SDS011;44860;53.020;6.738;2023-03-01T09:21:43;72.55;;;40.60;;
59074;SDS011;44860;53.020;6.738;2023-03-01T09:24:17;61.75;;;37.92;;
59074;SDS011;44860;53.020;6.738;2023-03-01T09:26:44;61.60;;;36.95;;
59074;SDS011;44860;53.020;6.738;2023-03-01T09:29:13;60.22;;;36.65;;
59074;SDS011;44860;53.020;6.738;2023-03-01T09:31:39;64.15;;;38.53;;
59074;SDS011;44860;53.020;6.738;2023-03-01T09:34:06;70.78;;;42.88;;
59074;SDS011;44860;53.020;6.738;2023-03-01T09:36:32;69.20;;;42.00;;
59074;SDS011;44860;53.020;6.738;2023-03-01T09:38:59;75.97;;;41.53;;
59074;SDS011;44860;53.020;6.738;2023-03-01T09:44:38;70.07;;;40.65;;
59074;SDS011;44860;53.020;6.738;2023-03-01T09:47:17;72.63;;;41.80;;
59074;SDS011;44860;53.020;6.738;2023-03-01T09:49:46;69.90;;;41.08;;
59074;SDS011;44860;53.020;6.738;2023-03-01T09:55:14;75.88;;;42.15;;
59074;SDS011;44860;53.020;6.738;2023-03-01T09:57:49;74.13;;;42.30;;
59074;SDS011;44860;53.020;6.738;2023-03-01T10:00:27;73.07;;;42.33;;
59074;SDS011;44860;53.020;6.738;2023-03-01T10:03:08;81.22;;;44.20;;
59074;SDS011;44860;53.020;6.738;2023-03-01T10:10:52;76.22;;;41.67;;
59074;SDS011;44860;53.020;6.738;2023-03-01T10:13:19;72.20;;;41.25;;
59074;SDS011;44860;53.020;6.738;2023-03-01T10:15:51;73.97;;;42.55;;
59074;SDS011;44860;53.020;6.738;2023-03-01T10:18:23;77.03;;;43.20;;
59074;SDS011;44860;53.020;6.738;2023-03-01T10:20:53;72.30;;;41.50;;
59074;SDS011;44860;53.020;6.738;2023-03-01T10:23:29;73.32;;;42.15;;
59074;SDS011;44860;53.020;6.738;2023-03-01T10:26:10;71.80;;;42.92;;
59074;SDS011;44860;53.020;6.738;2023-03-01T10:29:06;72.03;;;42.00;;
59074;SDS011;44860;53.020;6.738;2023-03-01T10:31:49;71.25;;;43.38;;
59074;SDS011;44860;53.020;6.738;2023-03-01T10:34:21;72.47;;;43.13;;
59074;SDS011;44860;53.020;6.738;2023-03-01T10:36:53;71.63;;;41.00;;
59074;SDS011;44860;53.020;6.738;2023-03-01T10:39:53;64.13;;;39.95;;
59074;SDS011;44860;53.020;6.738;2023-03-01T10:42:38;64.68;;;41.05;;
59074;SDS011;44860;53.020;6.738;2023-03-01T10:45:15;63.03;;;40.30;;
59074;SDS011;44860;53.020;6.738;2023-03-01T10:47:44;58.53;;;35.85;;
59074;SDS011;44860;53.020;6.738;2023-03-01T10:50:20;52.75;;;33.17;;
59074;SDS011;44860;53.020;6.738;2023-03-01T10:52:58;53.15;;;34.22;;
59074;SDS011;44860;53.020;6.738;2023-03-01T10:55:35;52.53;;;33.70;;
59074;SDS011;44860;53.020;6.738;2023-03-01T10:58:16;48.17;;;33.20;;
59074;SDS011;44860;53.020;6.738;2023-03-01T11:00:48;46.53;;;30.60;;
59074;SDS011;44860;53.020;6.738;2023-03-01T11:03:20;44.55;;;30.00;;
59074;SDS011;44860;53.020;6.738;2023-03-01T11:08:39;40.35;;;27.63;;
59074;SDS011;44860;53.020;6.738;2023-03-01T11:11:13;43.67;;;27.77;;
59074;SDS011;44860;53.020;6.738;2023-03-01T11:16:32;37.90;;;26.67;;
59074;SDS011;44860;53.020;6.738;2023-03-01T11:19:03;36.97;;;26.08;;
59074;SDS011;44860;53.020;6.738;2023-03-01T11:21:30;39.40;;;26.65;;
59074;SDS011;44860;53.020;6.738;2023-03-01T11:23:59;35.33;;;25.52;;
59074;SDS011;44860;53.020;6.738;2023-03-01T11:26:27;39.78;;;26.98;;
59074;SDS011;44860;53.020;6.738;2023-03-01T11:28:56;36.97;;;26.88;;
59074;SDS011;44860;53.020;6.738;2023-03-01T11:31:27;38.63;;;26.45;;
59074;SDS011;44860;53.020;6.738;2023-03-01T11:36:51;35.70;;;25.52;;
59074;SDS011;44860;53.020;6.738;2023-03-01T11:45:06;35.08;;;25.45;;
59074;SDS011;44860;53.020;6.738;2023-03-01T11:50:20;33.75;;;24.05;;
59074;SDS011;44860;53.020;6.738;2023-03-01T11:53:01;33.22;;;24.00;;
59074;SDS011;44860;53.020;6.738;2023-03-01T11:55:54;34.47;;;25.13;;
59074;SDS011;44860;53.020;6.738;2023-03-01T12:03:52;33.40;;;24.58;;
59074;SDS011;44860;53.020;6.738;2023-03-01T12:17:52;25.73;;;19.20;;
59074;SDS011;44860;53.020;6.738;2023-03-01T12:20:32;24.65;;;19.38;;
59074;SDS011;44860;53.020;6.738;2023-03-01T12:47:49;29.05;;;21.30;;
59074;SDS011;44860;53.020;6.738;2023-03-01T12:50:44;26.35;;;21.08;;
59074;SDS011;44860;53.020;6.738;2023-03-01T12:53:22;24.95;;;19.77;;
59074;SDS011;44860;53.020;6.738;2023-03-01T12:55:48;26.52;;;21.27;;
59074;SDS011;44860;53.020;6.738;2023-03-01T12:58:24;29.55;;;23.45;;
59074;SDS011;44860;53.020;6.738;2023-03-01T13:01:21;28.45;;;22.98;;
59074;SDS011;44860;53.020;6.738;2023-03-01T13:06:34;25.33;;;21.23;;
59074;SDS011;44860;53.020;6.738;2023-03-01T13:17:54;27.65;;;20.67;;
59074;SDS011;44860;53.020;6.738;2023-03-01T13:23:03;25.00;;;20.40;;
59074;SDS011;44860;53.020;6.738;2023-03-01T13:33:55;25.10;;;19.95;;
59074;SDS011;44860;53.020;6.738;2023-03-01T13:41:58;24.88;;;18.80;;
59074;SDS011;44860;53.020;6.738;2023-03-01T13:44:26;23.50;;;17.55;;
59074;SDS011;44860;53.020;6.738;2023-03-01T13:46:58;25.60;;;19.08;;
59074;SDS011;44860;53.020;6.738;2023-03-01T13:49:36;21.70;;;18.20;;
59074;SDS011;44860;53.020;6.738;2023-03-01T13:52:21;21.30;;;18.02;;
59074;SDS011;44860;53.020;6.738;2023-03-01T13:55:31;21.90;;;17.88;;
59074;SDS011;44860;53.020;6.738;2023-03-01T13:58:01;22.52;;;18.65;;
59074;SDS011;44860;53.020;6.738;2023-03-01T14:05:41;18.55;;;15.35;;
59074;SDS011;44860;53.020;6.738;2023-03-01T14:08:19;19.05;;;16.35;;
59074;SDS011;44860;53.020;6.738;2023-03-01T14:13:26;17.80;;;15.25;;
59074;SDS011;44860;53.020;6.738;2023-03-01T14:19:34;16.55;;;14.30;;
59074;SDS011;44860;53.020;6.738;2023-03-01T14:21:49;17.88;;;15.23;;
59074;SDS011;44860;53.020;6.738;2023-03-01T14:24:46;16.23;;;14.27;;
59074;SDS011;44860;53.020;6.738;2023-03-01T14:27:14;17.33;;;14.18;;
59074;SDS011;44860;53.020;6.738;2023-03-01T14:29:40;18.67;;;15.00;;
59074;SDS011;44860;53.020;6.738;2023-03-01T14:34:38;28.92;;;22.85;;
59074;SDS011;44860;53.020;6.738;2023-03-01T14:39:46;18.10;;;14.77;;
59074;SDS011;44860;53.020;6.738;2023-03-01T14:42:12;18.90;;;15.40;;
59074;SDS011;44860;53.020;6.738;2023-03-01T14:44:41;18.13;;;15.70;;
59074;SDS011;44860;53.020;6.738;2023-03-01T14:47:11;18.25;;;15.45;;
59074;SDS011;44860;53.020;6.738;2023-03-01T14:49:40;17.90;;;15.23;;
59074;SDS011;44860;53.020;6.738;2023-03-01T14:52:17;17.58;;;14.68;;
59074;SDS011;44860;53.020;6.738;2023-03-01T14:54:51;18.35;;;15.50;;
59074;SDS011;44860;53.020;6.738;2023-03-01T14:57:20;17.20;;;15.13;;
59074;SDS011;44860;53.020;6.738;2023-03-01T14:59:49;18.55;;;16.55;;
59074;SDS011;44860;53.020;6.738;2023-03-01T15:02:18;20.08;;;17.08;;
59074;SDS011;44860;53.020;6.738;2023-03-01T15:04:47;19.02;;;16.10;;
59074;SDS011;44860;53.020;6.738;2023-03-01T15:07:15;28.17;;;24.10;;
59074;SDS011;44860;53.020;6.738;2023-03-01T15:09:41;19.55;;;17.33;;
59074;SDS011;44860;53.020;6.738;2023-03-01T15:14:51;18.75;;;16.40;;
59074;SDS011;44860;53.020;6.738;2023-03-01T15:17:31;17.42;;;15.40;;
59074;SDS011;44860;53.020;6.738;2023-03-01T15:20:02;17.77;;;15.88;;
59074;SDS011;44860;53.020;6.738;2023-03-01T15:22:31;21.00;;;16.48;;
59074;SDS011;44860;53.020;6.738;2023-03-01T15:24:57;18.75;;;15.65;;
59074;SDS011;44860;53.020;6.738;2023-03-01T15:27:24;18.83;;;16.27;;
59074;SDS011;44860;53.020;6.738;2023-03-01T15:30:00;18.73;;;16.20;;
59074;SDS011;44860;53.020;6.738;2023-03-01T15:32:32;19.42;;;17.30;;
59074;SDS011;44860;53.020;6.738;2023-03-01T15:40:54;20.80;;;16.52;;
59074;SDS011;44860;53.020;6.738;2023-03-01T15:46:28;20.02;;;16.75;;
59074;SDS011;44860;53.020;6.738;2023-03-01T15:48:57;20.38;;;17.08;;
59074;SDS011;44860;53.020;6.738;2023-03-01T15:51:30;19.50;;;17.40;;
59074;SDS011;44860;53.020;6.738;2023-03-01T15:54:22;21.15;;;17.27;;
59074;SDS011;44860;53.020;6.738;2023-03-01T15:56:48;18.70;;;16.70;;
59074;SDS011;44860;53.020;6.738;2023-03-01T15:59:15;19.23;;;16.80;;
59074;SDS011;44860;53.020;6.738;2023-03-01T16:01:41;21.05;;;17.42;;
59074;SDS011;44860;53.020;6.738;2023-03-01T16:04:11;22.15;;;17.63;;
59074;SDS011;44860;53.020;6.738;2023-03-01T16:06:41;21.75;;;17.20;;
59074;SDS011;44860;53.020;6.738;2023-03-01T16:09:07;22.23;;;18.80;;
59074;SDS011;44860;53.020;6.738;2023-03-01T16:11:35;29.50;;;23.95;;
59074;SDS011;44860;53.020;6.738;2023-03-01T16:14:02;23.67;;;20.38;;
59074;SDS011;44860;53.020;6.738;2023-03-01T16:16:28;23.55;;;19.20;;
59074;SDS011;44860;53.020;6.738;2023-03-01T16:18:54;22.73;;;18.70;;
59074;SDS011;44860;53.020;6.738;2023-03-01T16:21:21;23.17;;;19.52;;
59074;SDS011;44860;53.020;6.738;2023-03-01T16:23:49;23.27;;;19.08;;
59074;SDS011;44860;53.020;6.738;2023-03-01T16:26:15;22.58;;;18.67;;
59074;SDS011;44860;53.020;6.738;2023-03-01T16:28:41;22.05;;;18.55;;
59074;SDS011;44860;53.020;6.738;2023-03-01T16:31:07;21.83;;;19.27;;
59074;SDS011;44860;53.020;6.738;2023-03-01T16:33:34;21.65;;;18.42;;
59074;SDS011;44860;53.020;6.738;2023-03-01T16:36:08;23.10;;;17.88;;
59074;SDS011;44860;53.020;6.738;2023-03-01T16:38:36;21.83;;;18.38;;
59074;SDS011;44860;53.020;6.738;2023-03-01T16:41:03;22.75;;;19.58;;
59074;SDS011;44860;53.020;6.738;2023-03-01T16:43:29;25.10;;;20.60;;
59074;SDS011;44860;53.020;6.738;2023-03-01T16:45:56;25.90;;;19.55;;
59074;SDS011;44860;53.020;6.738;2023-03-01T16:48:23;24.85;;;20.65;;
59074;SDS011;44860;53.020;6.738;2023-03-01T16:50:59;25.63;;;20.50;;
59074;SDS011;44860;53.020;6.738;2023-03-01T16:53:26;24.08;;;19.23;;